Time;durP1;ratioP1;P1;durP2;ratioP2;P2;SDS_P1;SDS_P2;PMS_P1;PMS_P2;Temp;Humidity;BMP_temperature;BMP_pressure;BME280_temperature;BME280_humidity;BME280_pressure;Samples;Min_cycle;Max_cycle;Signal;HPM_P1;HPM_P2
2022/09/19 00:01:23;;;;;;;2.35;1.70;;;9.40;99.90;;;;;;5053797;28;20033;-53
2022/09/19 00:04:02;;;;;;;2.35;2.15;;;9.30;99.90;;;;;;5053448;28;20029;-51
2022/09/19 00:06:29;;;;;;;3.47;2.15;;;9.20;99.90;;;;;;5053592;28;20528;-54
2022/09/19 00:08:56;;;;;;;5.43;1.70;;;9.10;99.90;;;;;;5053445;28;20043;-54
2022/09/19 00:11:22;;;;;;;1.80;1.70;;;9.00;99.90;;;;;;5053605;28;20021;-51
2022/09/19 00:13:49;;;;;;;2.83;1.85;;;9.00;99.90;;;;;;5053494;28;20025;-51
2022/09/19 00:16:24;;;;;;;2.00;1.80;;;8.90;99.90;;;;;;5053485;28;20059;-54
2022/09/19 00:18:51;;;;;;;2.95;1.90;;;8.90;99.90;;;;;;5053346;28;20036;-52
2022/09/19 00:21:26;;;;;;;1.98;1.80;;;8.80;99.90;;;;;;5053366;28;20032;-51
2022/09/19 00:26:37;;;;;;;3.45;2.17;;;8.60;99.90;;;;;;5053196;28;20044;-52
2022/09/19 00:29:04;;;;;;;10.45;4.43;;;8.60;99.90;;;;;;5051951;28;20141;-52
2022/09/19 00:31:30;;;;;;;1.80;1.70;;;8.60;99.90;;;;;;5053180;28;20516;-53
2022/09/19 00:33:55;;;;;;;2.67;1.75;;;8.50;99.90;;;;;;5053144;28;20108;-51
2022/09/19 00:36:22;;;;;;;2.45;1.90;;;8.40;99.90;;;;;;5053196;28;20039;-52
2022/09/19 00:38:48;;;;;;;2.10;1.88;;;8.40;99.90;;;;;;5052965;28;20047;-52
2022/09/19 00:41:26;;;;;;;3.38;2.03;;;8.40;99.90;;;;;;5051698;28;20484;-51
2022/09/19 00:43:52;;;;;;;2.25;1.80;;;8.40;99.90;;;;;;5052828;28;20077;-52
2022/09/19 00:46:20;;;;;;;2.42;1.73;;;8.30;99.90;;;;;;5052961;28;20456;-53
2022/09/19 00:48:56;;;;;;;3.58;1.90;;;8.30;99.90;;;;;;5052722;28;20031;-50
2022/09/19 00:51:37;;;;;;;2.35;1.75;;;8.30;99.90;;;;;;5052852;28;20525;-55
2022/09/19 00:54:09;;;;;;;4.43;1.90;;;8.30;99.90;;;;;;5051548;28;20033;-51
2022/09/19 00:56:35;;;;;;;1.98;1.83;;;8.30;99.90;;;;;;5052557;28;20021;-52
2022/09/19 00:59:02;;;;;;;2.00;1.80;;;8.30;99.90;;;;;;5052756;28;20054;-51
2022/09/19 01:01:28;;;;;;;4.30;1.80;;;8.30;99.90;;;;;;5052672;28;20063;-51
2022/09/19 01:03:55;;;;;;;2.17;2.08;;;8.30;99.90;;;;;;5052552;28;20033;-50
2022/09/19 01:06:51;;;;;;;2.95;2.70;;;8.20;99.90;;;;;;5052405;28;20123;-52
2022/09/19 01:09:53;;;;;;;2.28;2.08;;;8.20;99.90;;;;;;5052406;28;20029;-53
2022/09/19 01:12:48;;;;;;;2.28;1.60;;;8.20;99.90;;;;;;5052268;28;20391;-51
2022/09/19 01:15:42;;;;;;;1.63;1.52;;;8.00;99.90;;;;;;5052486;28;20027;-53
2022/09/19 01:18:09;;;;;;;2.58;1.55;;;7.90;99.90;;;;;;5052450;28;20040;-51
2022/09/19 01:20:50;;;;;;;1.60;1.50;;;7.90;99.90;;;;;;5051006;28;20032;-55
2022/09/19 01:23:45;;;;;;;1.50;1.40;;;7.80;99.90;;;;;;5052297;28;20025;-52
2022/09/19 01:26:19;;;;;;;1.60;1.50;;;7.70;99.90;;;;;;5052255;28;20086;-51
2022/09/19 01:29:08;;;;;;;3.05;1.60;;;7.70;99.90;;;;;;5052001;28;20029;-51
2022/09/19 01:31:42;;;;;;;1.70;1.60;;;7.70;99.90;;;;;;5050769;28;20380;-52
2022/09/19 01:34:32;;;;;;;1.67;1.58;;;7.70;99.90;;;;;;5051980;28;20104;-56
2022/09/19 01:37:03;;;;;;;1.50;1.40;;;7.70;99.90;;;;;;5051964;28;20025;-52
2022/09/19 01:39:31;;;;;;;1.50;1.40;;;7.70;99.90;;;;;;5051713;28;20060;-51
2022/09/19 01:42:00;;;;;;;2.50;1.63;;;7.80;99.90;;;;;;5051581;28;20028;-53
2022/09/19 01:44:28;;;;;;;1.50;1.40;;;7.80;99.90;;;;;;5051813;28;20145;-52
2022/09/19 01:47:15;;;;;;;1.50;1.40;;;7.80;99.90;;;;;;5051488;28;20035;-51
2022/09/19 01:50:19;;;;;;;1.88;1.50;;;7.90;99.90;;;;;;5051197;28;20024;-53
2022/09/19 01:52:53;;;;;;;1.83;1.73;;;7.90;99.90;;;;;;5050280;28;20029;-52
2022/09/19 01:55:19;;;;;;;1.88;1.75;;;7.80;99.90;;;;;;5051170;28;20074;-55
2022/09/19 01:58:06;;;;;;;1.60;1.50;;;7.80;99.90;;;;;;5051615;28;20021;-51
2022/09/19 02:00:34;;;;;;;4.05;1.70;;;7.90;99.90;;;;;;5051683;28;20601;-51
2022/09/19 02:03:14;;;;;;;2.78;1.60;;;7.90;99.90;;;;;;5050385;28;20090;-52
2022/09/19 02:05:46;;;;;;;2.53;1.90;;;7.90;99.90;;;;;;5051296;28;20025;-52
2022/09/19 02:08:22;;;;;;;2.00;1.90;;;7.90;99.90;;;;;;5048579;28;20056;-51
2022/09/19 02:10:56;;;;;;;2.35;1.92;;;7.90;99.90;;;;;;5051022;28;20108;-56
2022/09/19 02:13:25;;;;;;;4.10;1.75;;;7.90;99.90;;;;;;5051331;28;20013;-51
2022/09/19 02:15:58;;;;;;;2.47;1.70;;;7.90;99.90;;;;;;5051317;28;20056;-53
2022/09/19 02:18:31;;;;;;;1.38;1.35;;;7.80;99.90;;;;;;5051474;28;20388;-52
2022/09/19 02:21:05;;;;;;;1.52;1.42;;;7.80;99.90;;;;;;5051412;28;20028;-52
2022/09/19 02:23:33;;;;;;;1.90;1.58;;;7.80;99.90;;;;;;5050083;28;20044;-55
2022/09/19 02:26:03;;;;;;;1.75;1.65;;;7.70;99.90;;;;;;5051370;28;20025;-51
2022/09/19 02:28:41;;;;;;;1.58;1.48;;;7.70;99.90;;;;;;5051388;28;20090;-51
2022/09/19 02:31:07;;;;;;;2.05;1.58;;;7.70;99.90;;;;;;5051411;28;20105;-51
2022/09/19 02:33:35;;;;;;;1.20;1.20;;;7.60;99.90;;;;;;5051068;28;20116;-53
2022/09/19 02:36:27;;;;;;;1.70;1.60;;;7.70;99.90;;;;;;5051306;28;20017;-52
2022/09/19 02:39:19;;;;;;;1.45;1.35;;;7.60;99.90;;;;;;5051170;28;20021;-51
2022/09/19 02:41:51;;;;;;;1.50;1.40;;;7.60;99.90;;;;;;5051216;28;20061;-52
2022/09/19 02:44:21;;;;;;;1.60;1.50;;;7.50;99.90;;;;;;5051217;28;20082;-51
2022/09/19 02:47:05;;;;;;;1.40;1.30;;;7.50;99.90;;;;;;5051262;28;20056;-51
2022/09/19 02:49:46;;;;;;;;;;;7.50;99.90;;;;;;5051586;28;20547;-53
2022/09/19 02:52:17;;;;;;;1.42;1.40;;;7.50;99.90;;;;;;5051152;28;19912;-53
2022/09/19 02:54:48;;;;;;;1.42;1.38;;;7.40;99.90;;;;;;5050939;28;20159;-53
2022/09/19 02:57:17;;;;;;;1.48;1.40;;;7.40;99.90;;;;;;5051178;28;20017;-52
2022/09/19 02:59:48;;;;;;;1.30;1.20;;;7.30;99.90;;;;;;5050838;28;20063;-50
2022/09/19 03:02:44;;;;;;;1.23;1.23;;;7.30;99.90;;;;;;5051080;28;20025;-52
2022/09/19 03:05:14;;;;;;;1.40;1.33;;;7.30;99.90;;;;;;5051110;28;20043;-51
2022/09/19 03:07:46;;;;;;;1.58;1.48;;;7.30;99.90;;;;;;5053203;28;20048;-52
2022/09/19 03:10:16;;;;;;;1.33;1.30;;;7.30;99.90;;;;;;5054869;28;20385;-52
2022/09/19 03:12:50;;;;;;;2.13;1.67;;;7.30;99.90;;;;;;5054549;28;20052;-53
2022/09/19 03:15:24;;;;;;;1.35;1.25;;;7.30;99.90;;;;;;5054671;28;20104;-51
2022/09/19 03:17:53;;;;;;;1.58;1.40;;;7.30;99.90;;;;;;5054583;28;20082;-50
2022/09/19 03:20:24;;;;;;;1.85;1.52;;;7.30;99.90;;;;;;5054817;28;20032;-52
2022/09/19 03:22:51;;;;;;;1.60;1.50;;;7.20;99.90;;;;;;5054486;28;20044;-52
2022/09/19 03:25:16;;;;;;;1.10;1.10;;;7.20;99.90;;;;;;5054669;28;20071;-52
2022/09/19 03:27:43;;;;;;;1.73;1.55;;;7.20;99.90;;;;;;5054223;28;20048;-51
2022/09/19 03:30:11;;;;;;;4.57;1.60;;;7.10;99.90;;;;;;5054395;28;20761;-51
2022/09/19 03:32:39;;;;;;;1.50;1.40;;;7.10;99.90;;;;;;5054197;28;20017;-51
2022/09/19 03:35:05;;;;;;;1.88;1.40;;;7.20;99.90;;;;;;5054291;28;20022;-52
2022/09/19 03:37:34;;;;;;;1.30;1.30;;;7.20;99.90;;;;;;5054331;28;20074;-52
2022/09/19 03:40:01;;;;;;;1.23;1.23;;;7.10;99.90;;;;;;5054272;28;20029;-52
2022/09/19 03:42:28;;;;;;;1.30;1.30;;;7.00;99.90;;;;;;5054170;28;20032;-51
2022/09/19 03:44:54;;;;;;;1.33;1.27;;;7.00;99.90;;;;;;5054239;28;20540;-52
2022/09/19 03:47:21;;;;;;;1.30;1.30;;;6.90;99.90;;;;;;5054040;28;20511;-52
2022/09/19 03:49:51;;;;;;;1.60;1.50;;;6.90;99.90;;;;;;5053894;28;20143;-51
2022/09/19 03:52:18;;;;;;;4.38;1.50;;;6.80;99.90;;;;;;5054035;28;20028;-51
2022/09/19 03:54:47;;;;;;;1.67;1.58;;;6.70;99.90;;;;;;5053946;28;20038;-50
2022/09/19 03:57:14;;;;;;;1.45;1.45;;;6.70;99.90;;;;;;5053987;28;20113;-52
2022/09/19 03:59:42;;;;;;;3.55;1.55;;;6.60;99.90;;;;;;5053796;28;20104;-52
2022/09/19 04:02:09;;;;;;;1.50;1.50;;;6.60;99.90;;;;;;5053857;28;20036;-54
2022/09/19 04:04:35;;;;;;;1.70;1.60;;;6.50;99.90;;;;;;5053562;28;20353;-54
2022/09/19 04:07:02;;;;;;;1.75;1.65;;;6.60;99.90;;;;;;5053469;28;20044;-52
2022/09/19 04:09:28;;;;;;;1.55;1.45;;;6.60;99.90;;;;;;5053645;28;20041;-52
2022/09/19 04:11:56;;;;;;;1.58;1.48;;;6.50;99.90;;;;;;5053449;28;20724;-54
2022/09/19 04:14:23;;;;;;;1.73;1.70;;;6.50;99.90;;;;;;5053622;28;20082;-51
2022/09/19 04:16:49;;;;;;;2.00;1.80;;;6.50;99.90;;;;;;5051940;28;20086;-50
2022/09/19 04:19:15;;;;;;;1.75;1.65;;;6.50;99.90;;;;;;5053144;28;20037;-51
2022/09/19 04:21:41;;;;;;;3.20;1.85;;;6.50;99.90;;;;;;5053269;28;20624;-51
2022/09/19 04:24:11;;;;;;;1.50;1.50;;;6.50;99.90;;;;;;5053410;28;20120;-51
2022/09/19 04:26:37;;;;;;;1.73;1.63;;;6.50;99.90;;;;;;5053105;28;20029;-55
2022/09/19 04:29:05;;;;;;;1.73;1.63;;;6.60;99.90;;;;;;5053246;28;20029;-51
2022/09/19 04:31:41;;;;;;;5.10;1.80;;;6.60;99.90;;;;;;5051973;28;20099;-53
2022/09/19 04:34:10;;;;;;;1.38;1.38;;;6.70;99.90;;;;;;5053211;28;20032;-53
2022/09/19 04:36:35;;;;;;;1.65;1.55;;;6.80;99.90;;;;;;5052906;28;20036;-51
2022/09/19 04:39:02;;;;;;;2.90;1.52;;;6.90;99.90;;;;;;5052590;28;20033;-52
2022/09/19 04:41:33;;;;;;;2.20;1.60;;;6.90;99.90;;;;;;5052025;28;20027;-51
2022/09/19 04:44:00;;;;;;;1.63;1.52;;;6.90;99.90;;;;;;5051654;28;20104;-52
2022/09/19 04:46:26;;;;;;;3.42;1.80;;;7.00;99.90;;;;;;5051737;28;20029;-50
2022/09/19 04:48:54;;;;;;;2.25;1.80;;;7.00;99.90;;;;;;5051493;28;20039;-49
2022/09/19 04:51:20;;;;;;;5.18;1.77;;;7.10;99.90;;;;;;5051548;28;20573;-52
2022/09/19 04:53:46;;;;;;;1.65;1.63;;;7.10;99.90;;;;;;5050043;28;20033;-51
2022/09/19 04:56:12;;;;;;;1.83;1.73;;;7.10;99.90;;;;;;5050153;28;20021;-51
2022/09/19 04:58:40;;;;;;;2.03;1.90;;;7.20;99.90;;;;;;5051282;28;20036;-53
2022/09/19 05:01:07;;;;;;;3.38;3.08;;;7.20;99.90;;;;;;5051395;28;20021;-51
2022/09/19 05:03:35;;;;;;;2.42;1.73;;;7.20;99.90;;;;;;5051056;28;20027;-52
2022/09/19 05:06:01;;;;;;;3.13;1.75;;;7.20;99.90;;;;;;5051295;28;20029;-51
2022/09/19 05:08:30;;;;;;;3.38;1.90;;;7.30;99.90;;;;;;5050822;28;20052;-53
2022/09/19 05:10:58;;;;;;;2.53;1.63;;;7.30;99.90;;;;;;5051096;28;20453;-51
2022/09/19 05:13:27;;;;;;;3.38;1.50;;;7.30;99.90;;;;;;5051234;28;20036;-51
2022/09/19 05:15:54;;;;;;;1.77;1.67;;;7.30;99.90;;;;;;5051316;28;20032;-50
2022/09/19 05:18:21;;;;;;;2.85;1.70;;;7.40;99.90;;;;;;5050927;28;20048;-53
2022/09/19 05:20:47;;;;;;;4.18;2.55;;;7.40;99.90;;;;;;5050783;28;20028;-51
2022/09/19 05:23:14;;;;;;;2.75;1.70;;;7.40;99.90;;;;;;5050909;28;20116;-51
2022/09/19 05:25:40;;;;;;;7.00;1.98;;;7.40;99.90;;;;;;5050898;28;20048;-51
2022/09/19 05:28:08;;;;;;;3.92;1.65;;;7.40;99.90;;;;;;5049617;28;20029;-51
2022/09/19 05:30:39;;;;;;;8.68;5.88;;;7.40;99.90;;;;;;5049868;28;20021;-50
2022/09/19 05:33:06;;;;;;;7.22;2.80;;;7.40;99.90;;;;;;5050832;28;20059;-50
2022/09/19 05:35:32;;;;;;;4.07;2.00;;;7.50;99.90;;;;;;5050721;28;20029;-54
2022/09/19 05:37:59;;;;;;;3.65;1.98;;;7.50;99.90;;;;;;5050604;28;20020;-52
2022/09/19 05:40:25;;;;;;;5.00;3.33;;;7.50;99.90;;;;;;5049414;28;20388;-51
2022/09/19 05:42:59;;;;;;;3.58;2.13;;;7.50;99.90;;;;;;5050549;28;20696;-51
2022/09/19 05:45:25;;;;;;;3.45;2.10;;;7.50;99.90;;;;;;5050541;28;20380;-50
2022/09/19 05:47:51;;;;;;;3.33;2.03;;;7.50;99.90;;;;;;5049105;28;20152;-50
2022/09/19 05:50:17;;;;;;;2.53;1.88;;;7.60;99.90;;;;;;5049288;28;20488;-51
2022/09/19 05:55:29;;;;;;;4.18;2.38;;;7.50;99.90;;;;;;5051236;28;20395;-52
2022/09/19 05:57:58;;;;;;;2.75;2.17;;;7.60;99.90;;;;;;5050198;28;20025;-50
2022/09/19 06:00:26;;;;;;;6.95;2.10;;;7.60;99.90;;;;;;5050341;28;20027;-53
2022/09/19 06:03:11;;;;;;;3.30;1.80;;;7.60;99.90;;;;;;5050280;28;20033;-51
2022/09/19 06:05:40;;;;;;;3.35;1.52;;;7.60;99.90;;;;;;5050271;28;20025;-50
2022/09/19 06:08:07;;;;;;;5.32;1.80;;;7.60;99.90;;;;;;5050013;28;20706;-52
2022/09/19 06:10:35;;;;;;;3.08;2.00;;;7.60;99.90;;;;;;5050032;28;20388;-52
2022/09/19 06:13:01;;;;;;;4.18;2.08;;;7.60;99.90;;;;;;5048751;28;20053;-52
2022/09/19 06:15:26;;;;;;;9.40;2.47;;;7.70;99.90;;;;;;5050150;28;20059;-51
2022/09/19 06:17:56;;;;;;;4.75;2.00;;;7.70;99.90;;;;;;5050107;28;20522;-51
2022/09/19 06:20:22;;;;;;;2.38;1.80;;;7.70;99.90;;;;;;5050148;28;20032;-50
2022/09/19 06:22:49;;;;;;;5.43;1.77;;;7.80;99.90;;;;;;5050034;28;20025;-51
2022/09/19 06:25:16;;;;;;;6.35;2.42;;;7.80;99.90;;;;;;5050126;28;20009;-51
2022/09/19 06:27:44;;;;;;;3.65;1.90;;;7.80;99.90;;;;;;5050038;28;20396;-51
2022/09/19 06:30:10;;;;;;;1.98;1.85;;;7.80;99.90;;;;;;5050131;28;20324;-50
2022/09/19 06:32:38;;;;;;;2.78;2.15;;;7.80;99.90;;;;;;5049726;28;20025;-50
2022/09/19 06:35:04;;;;;;;2.35;1.75;;;7.80;99.90;;;;;;5050535;28;20029;-51
2022/09/19 06:37:30;;;;;;;2.65;1.85;;;7.80;99.90;;;;;;5049843;28;20021;-54
2022/09/19 06:39:56;;;;;;;5.05;2.40;;;7.90;99.90;;;;;;5048645;28;20044;-54
2022/09/19 06:42:22;;;;;;;3.17;1.50;;;7.90;99.90;;;;;;5053978;28;20397;-51
2022/09/19 06:44:48;;;;;;;5.75;2.55;;;7.90;99.90;;;;;;5053802;28;20029;-53
2022/09/19 06:47:13;;;;;;;6.70;2.65;;;7.90;99.90;;;;;;5053943;28;20029;-52
2022/09/19 06:49:39;;;;;;;5.47;1.90;;;7.90;99.90;;;;;;5053629;28;20025;-52
2022/09/19 06:52:05;;;;;;;3.42;1.77;;;7.90;99.90;;;;;;5053749;28;20048;-52
2022/09/19 06:54:31;;;;;;;5.32;2.30;;;7.90;99.90;;;;;;5052577;28;20154;-51
2022/09/19 06:56:56;;;;;;;9.52;2.13;;;7.90;99.90;;;;;;5053892;28;20476;-50
2022/09/19 06:59:22;;;;;;;2.58;2.15;;;7.90;99.90;;;;;;5053661;28;20021;-53
2022/09/19 07:01:49;;;;;;;5.28;2.70;;;7.90;99.90;;;;;;5053525;28;20037;-52
2022/09/19 07:04:15;;;;;;;2.60;2.00;;;8.00;99.90;;;;;;5053614;28;20013;-50
2022/09/19 07:06:41;;;;;;;5.68;2.17;;;8.00;99.90;;;;;;5053257;28;20048;-51
2022/09/19 07:09:07;;;;;;;3.83;2.30;;;8.00;99.90;;;;;;5053468;28;20082;-51
2022/09/19 07:11:35;;;;;;;3.38;2.47;;;7.90;99.90;;;;;;5053324;28;20435;-51
2022/09/19 07:14:04;;;;;;;5.95;2.42;;;7.90;99.90;;;;;;5053496;28;20024;-51
2022/09/19 07:16:31;;;;;;;2.78;1.98;;;8.00;99.90;;;;;;5053455;28;20035;-52
2022/09/19 07:18:56;;;;;;;3.38;2.35;;;7.90;99.90;;;;;;5053244;28;20111;-52
2022/09/19 07:21:22;;;;;;;5.18;2.22;;;8.00;99.90;;;;;;5053326;28;20112;-51
2022/09/19 07:23:49;;;;;;;8.07;2.20;;;8.10;99.90;;;;;;5053147;28;20075;-52
2022/09/19 07:26:15;;;;;;;5.53;2.42;;;8.10;99.90;;;;;;5053249;28;20107;-51
2022/09/19 07:28:41;;;;;;;5.15;2.05;;;8.00;99.90;;;;;;5052902;28;20116;-51
2022/09/19 07:31:07;;;;;;;3.83;2.13;;;8.00;99.90;;;;;;5053164;28;20048;-51
2022/09/19 07:33:33;;;;;;;3.80;2.08;;;8.10;99.90;;;;;;5052948;28;20536;-52
2022/09/19 07:35:59;;;;;;;4.10;2.10;;;8.10;99.90;;;;;;5053013;28;20078;-55
2022/09/19 07:38:27;;;;;;;4.85;2.40;;;8.00;99.90;;;;;;5053164;28;20032;-52
2022/09/19 07:40:54;;;;;;;3.40;2.08;;;8.00;99.90;;;;;;5052861;28;20021;-52
2022/09/19 07:43:19;;;;;;;6.95;5.07;;;8.10;99.90;;;;;;5052834;28;20021;-51
2022/09/19 07:45:47;;;;;;;3.92;2.00;;;8.00;99.90;;;;;;5052744;28;20392;-51
2022/09/19 07:48:14;;;;;;;4.80;2.13;;;8.00;99.90;;;;;;5052599;28;20659;-52
2022/09/19 07:50:40;;;;;;;7.47;2.15;;;8.10;99.90;;;;;;5052496;28;20104;-53
2022/09/19 07:53:12;;;;;;;3.38;1.90;;;8.00;99.90;;;;;;5051820;28;20024;-52
2022/09/19 07:55:37;;;;;;;5.00;1.98;;;8.10;99.90;;;;;;5052549;28;20021;-51
2022/09/19 07:58:05;;;;;;;5.47;2.00;;;8.00;99.90;;;;;;5052679;28;20025;-50
2022/09/19 08:00:31;;;;;;;6.47;2.30;;;8.00;99.90;;;;;;5053038;28;20483;-51
2022/09/19 08:02:59;;;;;;;4.18;2.20;;;8.00;99.90;;;;;;5052469;28;20017;-51
2022/09/19 08:05:27;;;;;;;2.55;2.17;;;8.10;99.90;;;;;;5052468;28;20019;-52
2022/09/19 08:07:53;;;;;;;5.75;2.28;;;8.20;99.90;;;;;;5050698;28;20049;-52
2022/09/19 08:10:20;;;;;;;2.78;2.38;;;8.30;99.90;;;;;;5052532;28;20389;-51
2022/09/19 08:12:47;;;;;;;6.00;2.67;;;8.50;99.90;;;;;;5052244;28;20036;-51
2022/09/19 08:15:17;;;;;;;6.82;2.90;;;8.40;99.90;;;;;;5050986;28;20048;-52
2022/09/19 08:17:54;;;;;;;5.15;2.50;;;8.30;99.90;;;;;;5052098;28;20538;-51
2022/09/19 08:20:20;;;;;;;5.00;2.25;;;8.30;99.90;;;;;;5052213;28;20025;-50
2022/09/19 08:22:46;;;;;;;3.33;2.85;;;8.30;99.90;;;;;;5051932;28;20027;-50
2022/09/19 08:25:11;;;;;;;6.22;2.40;;;8.30;99.90;;;;;;5052109;28;20033;-51
2022/09/19 08:27:37;;;;;;;6.63;2.50;;;8.40;99.90;;;;;;5051989;28;20057;-51
2022/09/19 08:30:04;;;;;;;5.05;2.20;;;8.50;99.90;;;;;;5051936;28;20032;-50
2022/09/19 08:32:31;;;;;;;5.72;2.40;;;8.40;99.90;;;;;;5051967;28;20028;-54
2022/09/19 08:34:57;;;;;;;4.07;2.50;;;8.30;99.90;;;;;;5051872;28;20104;-52
2022/09/19 08:37:25;;;;;;;2.78;2.17;;;8.40;99.90;;;;;;5051987;28;20025;-53
2022/09/19 08:42:58;;;;;;;3.70;2.03;;;8.50;99.90;;;;;;5051889;28;20067;-54
2022/09/19 08:46:04;;;;;;;2.85;2.10;;;8.50;99.90;;;;;;5051802;28;20021;-51
2022/09/19 08:48:48;;;;;;;2.72;1.90;;;8.50;99.90;;;;;;5051627;28;20044;-51
2022/09/19 08:51:26;;;;;;;6.75;2.10;;;8.60;99.90;;;;;;5051651;28;20068;-53
2022/09/19 08:54:02;;;;;;;6.82;2.10;;;8.60;99.90;;;;;;5051415;28;20036;-51
2022/09/19 08:56:29;;;;;;;4.88;2.08;;;8.50;99.90;;;;;;5051388;28;20017;-51
2022/09/19 08:59:01;;;;;;;2.88;1.98;;;8.50;99.90;;;;;;5051404;28;20033;-50
2022/09/19 09:01:32;;;;;;;5.57;1.88;;;8.50;99.90;;;;;;5051375;28;20435;-50
2022/09/19 09:04:22;;;;;;;4.95;2.35;;;8.30;99.90;;;;;;5051271;28;20077;-50
2022/09/19 09:07:00;;;;;;;4.63;1.90;;;8.50;99.90;;;;;;5051041;28;20096;-52
2022/09/19 09:09:46;;;;;;;3.67;2.60;;;8.50;99.90;;;;;;5051057;28;20025;-55
2022/09/19 09:12:32;;;;;;;6.10;2.42;;;8.40;99.90;;;;;;5051324;28;20031;-51
2022/09/19 09:15:22;;;;;;;2.42;1.75;;;8.40;99.90;;;;;;5051197;28;20013;-52
2022/09/19 09:17:48;;;;;;;3.47;1.80;;;8.30;99.90;;;;;;5050974;28;20052;-52
2022/09/19 09:20:26;;;;;;;5.18;2.80;;;8.40;99.90;;;;;;5051057;28;20031;-51
2022/09/19 09:23:04;;;;;;;3.38;1.92;;;8.30;99.90;;;;;;5049622;28;20511;-52
2022/09/19 09:25:32;;;;;;;5.15;2.60;;;8.40;99.90;;;;;;5050902;28;20029;-55
2022/09/19 09:28:32;;;;;;;4.50;2.38;;;8.50;99.90;;;;;;5050737;28;20112;-51
2022/09/19 09:31:40;;;;;;;3.58;1.92;;;8.40;99.90;;;;;;5050883;28;20017;-52
2022/09/19 09:34:28;;;;;;;3.85;3.55;;;8.60;99.90;;;;;;5050915;28;20119;-53
2022/09/19 09:37:06;;;;;;;6.20;2.40;;;8.70;99.90;;;;;;5050761;28;20362;-50
2022/09/19 09:42:37;;;;;;;7.07;4.68;;;8.60;99.90;;;;;;5050967;28;20434;-52
2022/09/19 09:45:29;;;;;;;2.13;1.92;;;8.60;99.90;;;;;;5049950;28;20017;-49
2022/09/19 09:48:11;;;;;;;12.83;7.27;;;8.70;99.90;;;;;;5065178;28;20593;-53
2022/09/19 09:50:49;;;;;;;7.35;2.85;;;8.70;99.90;;;;;;5069624;28;20116;-53
2022/09/19 09:53:27;;;;;;;3.47;2.40;;;8.70;99.90;;;;;;5069569;28;20075;-50
2022/09/19 09:56:30;;;;;;;9.25;2.83;;;8.70;99.90;;;;;;5070528;28;20641;-50
2022/09/19 10:03:33;;;;;;;3.42;2.55;;;8.70;99.90;;;;;;5069096;28;20040;-53
2022/09/19 10:05:01;;;;;;;7.20;2.83;;;8.70;99.90;;;;;;5070306;28;20031;-49
2022/09/19 10:07:39;;;;;;;4.28;2.20;;;8.80;99.90;;;;;;5070194;28;20044;-53
2022/09/19 10:10:18;;;;;;;4.93;2.20;;;8.90;99.90;;;;;;5070131;28;20078;-53
2022/09/19 10:12:58;;;;;;;4.43;2.42;;;9.00;99.90;;;;;;5070157;28;20027;-51
2022/09/19 10:15:25;;;;;;;4.40;2.30;;;8.90;99.90;;;;;;5069953;28;20031;-52
2022/09/19 10:18:05;;;;;;;5.25;2.30;;;9.10;99.90;;;;;;5070087;28;20027;-51
2022/09/19 10:20:49;;;;;;;12.75;2.55;;;9.20;99.90;;;;;;5070120;28;20032;-52
2022/09/19 10:23:23;;;;;;;4.65;2.40;;;9.20;99.90;;;;;;5070145;28;20052;-51
2022/09/19 10:25:51;;;;;;;5.43;2.17;;;9.20;99.90;;;;;;5070238;28;20421;-50
2022/09/19 10:28:25;;;;;;;5.38;2.15;;;9.40;99.90;;;;;;5070085;28;20431;-51
2022/09/19 10:30:58;;;;;;;7.00;2.63;;;9.50;99.90;;;;;;5069747;28;20021;-51
2022/09/19 10:33:44;;;;;;;6.88;2.67;;;9.50;99.90;;;;;;5070084;28;20060;-52
2022/09/19 10:36:22;;;;;;;3.15;2.30;;;9.60;99.90;;;;;;5070203;28;20039;-51
2022/09/19 10:38:54;;;;;;;7.30;2.35;;;9.80;99.90;;;;;;5069698;28;20418;-51
2022/09/19 10:41:22;;;;;;;3.55;1.95;;;9.70;99.90;;;;;;5069884;28;20029;-52
2022/09/19 10:43:57;;;;;;;4.97;2.47;;;9.60;99.90;;;;;;5069957;28;20499;-52
2022/09/19 10:46:36;;;;;;;3.63;2.40;;;9.60;99.90;;;;;;5069973;28;20383;-51
2022/09/19 10:49:05;;;;;;;11.85;7.22;;;9.50;99.90;;;;;;5069836;28;20024;-52
2022/09/19 10:51:35;;;;;;;4.25;2.33;;;9.60;99.90;;;;;;5068531;28;20020;-52
2022/09/19 10:54:11;;;;;;;6.35;3.28;;;9.60;99.90;;;;;;5070179;28;20410;-52
2022/09/19 10:56:40;;;;;;;2.75;2.40;;;9.50;99.90;;;;;;5069616;28;20024;-52
2022/09/19 10:59:12;;;;;;;5.70;3.60;;;9.50;99.90;;;;;;5070162;28;20025;-50
2022/09/19 11:01:39;;;;;;;8.27;2.70;;;9.50;99.90;;;;;;5069618;28;20028;-52
2022/09/19 11:04:11;;;;;;;5.28;2.50;;;9.50;99.90;;;;;;5069736;28;20021;-50
2022/09/19 11:07:16;;;;;;;5.53;2.03;;;9.60;99.90;;;;;;5069548;28;20025;-51
2022/09/19 11:09:43;;;;;;;5.57;2.22;;;9.80;99.90;;;;;;5069553;28;20416;-48
2022/09/19 11:12:16;;;;;;;7.00;2.20;;;10.00;99.90;;;;;;5069518;28;20024;-55
2022/09/19 11:14:48;;;;;;;4.50;2.28;;;10.30;99.90;;;;;;5069449;28;20025;-53
2022/09/19 11:17:33;;;;;;;10.80;1.95;;;10.70;99.90;;;;;;5069584;28;20372;-54
2022/09/19 11:20:18;;;;;;;7.78;2.10;;;10.90;99.90;;;;;;5069146;28;20021;-52
2022/09/19 11:23:03;;;;;;;4.00;2.38;;;11.10;99.90;;;;;;5069403;28;20020;-52
2022/09/19 11:26:00;;;;;;;3.28;1.92;;;11.20;99.90;;;;;;5069681;28;20050;-51
2022/09/19 11:28:43;;;;;;;6.10;2.85;;;11.50;99.90;;;;;;5071585;28;20100;-50
2022/09/19 11:31:27;;;;;;;7.97;1.92;;;12.10;99.90;;;;;;5073155;28;20021;-53
2022/09/19 11:34:13;;;;;;;3.60;1.80;;;12.20;99.90;;;;;;5072974;28;20111;-53
2022/09/19 11:36:44;;;;;;;11.18;1.90;;;12.60;99.90;;;;;;5072006;28;20036;-54
2022/09/19 11:39:30;;;;;;;4.40;1.75;;;12.00;99.90;;;;;;5073314;28;20024;-51
2022/09/19 11:42:06;;;;;;;4.55;2.00;;;12.40;99.90;;;;;;5072918;28;20090;-53
2022/09/19 11:44:48;;;;;;;3.95;1.60;;;12.10;99.90;;;;;;5072689;28;20024;-51
2022/09/19 11:47:46;;;;;;;3.70;2.00;;;12.00;99.90;;;;;;5072746;28;20024;-52
2022/09/19 11:50:39;;;;;;;7.93;2.20;;;11.60;99.90;;;;;;5072863;28;20380;-51
2022/09/19 11:53:20;;;;;;;7.70;3.47;;;11.60;99.90;;;;;;5072613;28;20078;-53
2022/09/19 11:55:58;;;;;;;3.22;1.70;;;11.50;99.90;;;;;;5072640;28;20380;-51
2022/09/19 11:58:44;;;;;;;8.10;2.22;;;11.30;99.90;;;;;;5072635;28;20375;-52
2022/09/19 12:01:26;;;;;;;4.38;1.80;;;11.30;99.90;;;;;;5072676;28;20450;-52
2022/09/19 12:04:19;;;;;;;6.10;1.70;;;11.50;99.90;;;;;;5072307;28;20039;-51
2022/09/19 12:06:47;;;;;;;5.40;1.55;;;11.50;99.90;;;;;;5072032;28;20058;-51
2022/09/19 12:09:22;;;;;;;5.03;1.80;;;11.60;99.90;;;;;;5056350;28;20017;-51
2022/09/19 12:11:58;;;;;;;3.22;1.90;;;12.10;99.90;;;;;;5050783;28;20025;-51
2022/09/19 12:14:41;;;;;;;5.60;1.80;;;12.10;99.90;;;;;;5051774;28;20025;-51
2022/09/19 12:17:18;;;;;;;;;;;11.90;99.90;;;;;;5052763;28;20139;-51
2022/09/19 12:19:49;;;;;;;6.38;1.83;;;11.80;99.90;;;;;;5052069;28;19905;-52
2022/09/19 12:22:23;;;;;;;6.72;1.90;;;11.70;99.90;;;;;;5052202;28;20086;-51
2022/09/19 12:25:18;;;;;;;6.25;2.28;;;11.60;99.90;;;;;;5051997;28;20480;-52
2022/09/19 12:27:54;;;;;;;8.98;1.80;;;11.40;99.90;;;;;;5051441;28;20037;-53
2022/09/19 12:30:22;;;;;;;3.22;1.77;;;11.40;99.90;;;;;;5051955;28;20036;-51
2022/09/19 12:32:59;;;;;;;4.53;1.73;;;11.20;99.90;;;;;;5050627;28;20028;-52
2022/09/19 12:36:06;;;;;;;6.25;1.88;;;11.40;99.90;;;;;;5052115;28;20021;-50
2022/09/19 12:38:45;;;;;;;2.72;1.92;;;11.30;99.90;;;;;;5056293;28;20044;-52
2022/09/19 12:41:40;;;;;;;4.05;2.40;;;11.50;99.90;;;;;;5052013;28;20032;-52
2022/09/19 12:44:23;;;;;;;3.45;1.80;;;11.60;99.90;;;;;;5051846;28;20025;-52
2022/09/19 12:47:21;;;;;;;2.40;1.50;;;11.90;99.90;;;;;;5051659;28;20606;-52
2022/09/19 12:49:56;;;;;;;3.13;1.50;;;12.30;99.90;;;;;;5051498;28;20336;-52
2022/09/19 12:52:38;;;;;;;3.83;1.90;;;12.20;99.90;;;;;;5051653;28;20104;-53
2022/09/19 12:55:14;;;;;;;5.60;2.15;;;12.30;99.90;;;;;;5051697;28;20349;-52
2022/09/19 12:58:01;;;;;;;2.58;1.50;;;12.20;99.90;;;;;;5051272;28;20464;-53
2022/09/19 13:00:27;;;;;;;1.60;1.50;;;12.00;99.90;;;;;;5051401;28;20021;-54
2022/09/19 13:03:17;;;;;;;4.28;2.22;;;11.60;99.90;;;;;;5051013;28;20025;-54
2022/09/19 13:05:51;;;;;;;1.77;1.40;;;11.10;99.90;;;;;;5051203;28;20013;-51
2022/09/19 13:08:24;;;;;;;2.72;1.42;;;11.10;99.90;;;;;;5051165;28;20444;-53
2022/09/19 13:11:11;;;;;;;1.83;1.55;;;11.90;99.90;;;;;;5051067;28;20025;-55
2022/09/19 13:13:51;;;;;;;1.35;1.05;;;13.50;99.90;;;;;;5051167;28;20059;-54
2022/09/19 13:16:21;;;;;;;3.50;1.58;;;14.50;99.90;;;;;;5051280;28;20017;-55
2022/09/19 13:24:39;;;;;;;1.88;0.73;;;17.80;97.60;;;;;;5051049;28;20043;-54
2022/09/19 13:27:05;;;;;;;2.90;1.40;;;18.10;94.50;;;;;;5050994;28;20111;-53
2022/09/19 13:29:31;;;;;;;2.65;1.40;;;18.70;93.60;;;;;;5050885;28;20100;-51
2022/09/19 13:31:59;;;;;;;1.40;0.80;;;18.50;93.60;;;;;;5050727;28;20473;-51
2022/09/19 13:34:39;;;;;;;2.75;1.05;;;17.10;93.70;;;;;;5050936;28;20025;-54
2022/09/19 13:37:28;;;;;;;1.35;1.23;;;16.80;96.00;;;;;;5050826;28;20380;-54
2022/09/19 13:40:15;;;;;;;3.55;1.33;;;15.60;97.00;;;;;;5050621;28;20021;-53
2022/09/19 13:42:47;;;;;;;5.13;2.28;;;14.50;99.90;;;;;;5050577;28;20542;-53
2022/09/19 13:45:32;;;;;;;1.40;1.30;;;13.40;99.90;;;;;;5050674;28;20052;-55
2022/09/19 13:48:13;;;;;;;1.65;1.40;;;12.80;99.90;;;;;;5050531;28;20044;-54